createdAt,value
2023-04-18T00:00:49.482Z,565.00
2023-04-18T00:01:49.587Z,566.00
2023-04-18T00:02:49.756Z,567.00
2023-04-18T00:04:48.860Z,566.00
2023-04-18T00:05:49.744Z,567.00
2023-04-18T00:06:49.794Z,565.00
2023-04-18T00:07:49.824Z,566.00
2023-04-18T00:08:49.867Z,567.00
2023-04-18T00:09:49.930Z,565.00
2023-04-18T00:10:49.998Z,564.00
2023-04-18T00:11:50.024Z,563.00
2023-04-18T00:12:50.062Z,562.00
2023-04-18T00:13:50.088Z,563.00
2023-04-18T00:14:50.130Z,565.00
2023-04-18T00:15:50.158Z,564.00
2023-04-18T00:16:50.208Z,564.00
2023-04-18T00:17:50.314Z,566.00
2023-04-18T00:18:50.274Z,567.00
2023-04-18T00:19:50.307Z,565.00
2023-04-18T00:20:50.318Z,564.00
2023-04-18T00:21:50.348Z,566.00
2023-04-18T00:22:50.394Z,563.00
2023-04-18T00:23:50.426Z,565.00
2023-04-18T00:24:50.438Z,564.00
2023-04-18T00:25:50.462Z,564.00
2023-04-18T00:26:50.510Z,564.00
2023-04-18T00:27:50.507Z,566.00
2023-04-18T00:28:50.556Z,565.00
2023-04-18T00:29:50.583Z,562.00
2023-04-18T00:30:50.687Z,560.00
2023-04-18T00:31:50.672Z,565.00
2023-04-18T00:32:50.834Z,569.00
2023-04-18T00:33:50.704Z,569.00
2023-04-18T00:34:50.734Z,568.00
2023-04-18T00:35:50.787Z,566.00
2023-04-18T00:36:50.791Z,567.00
2023-04-18T00:37:50.818Z,565.00
2023-04-18T00:38:50.872Z,564.00
2023-04-18T00:39:50.861Z,561.00
2023-04-18T00:40:50.883Z,560.00
2023-04-18T00:41:50.894Z,561.00
2023-04-18T00:42:50.923Z,561.00
2023-04-18T00:43:50.900Z,560.00
2023-04-18T00:44:50.922Z,561.00
2023-04-18T00:45:50.988Z,566.00
2023-04-18T00:46:50.935Z,568.00
2023-04-18T00:47:51.004Z,566.00
2023-04-18T00:48:50.975Z,562.00
2023-04-18T00:49:50.967Z,563.00
2023-04-18T00:50:50.985Z,562.00
2023-04-18T00:51:51.021Z,565.00
2023-04-18T00:52:51.031Z,563.00
2023-04-18T00:53:51.033Z,561.00
2023-04-18T00:54:51.053Z,559.00
2023-04-18T00:55:51.047Z,559.00
2023-04-18T00:56:51.069Z,557.00
2023-04-18T00:57:51.081Z,559.00
2023-04-18T00:58:51.106Z,562.00
2023-04-18T00:59:51.081Z,562.00
2023-04-18T01:00:51.099Z,559.00
2023-04-18T01:01:51.126Z,559.00
2023-04-18T01:02:51.180Z,561.00
2023-04-18T01:03:51.145Z,559.00
2023-04-18T01:04:51.071Z,558.00
2023-04-18T01:05:51.069Z,560.00
2023-04-18T01:06:51.069Z,560.00
2023-04-18T01:07:51.054Z,561.00
2023-04-18T01:08:51.052Z,561.00
2023-04-18T01:09:51.049Z,560.00
2023-04-18T01:10:51.043Z,560.00
2023-04-18T01:11:51.031Z,560.00
2023-04-18T01:12:51.036Z,559.00
2023-04-18T01:13:51.023Z,558.00
2023-04-18T01:14:51.040Z,559.00
2023-04-18T01:15:51.091Z,559.00
2023-04-18T01:16:51.043Z,558.00
2023-04-18T01:17:51.046Z,560.00
2023-04-18T01:18:51.021Z,560.00
2023-04-18T01:19:51.082Z,558.00
2023-04-18T01:20:51.025Z,557.00
2023-04-18T01:21:51.009Z,557.00
2023-04-18T01:22:51.005Z,561.00
2023-04-18T01:23:51.007Z,561.00
2023-04-18T01:24:51.010Z,561.00
2023-04-18T01:25:51.008Z,559.00
2023-04-18T01:26:50.998Z,556.00
2023-04-18T01:27:50.991Z,556.00
2023-04-18T01:28:50.997Z,557.00
2023-04-18T01:29:50.997Z,557.00
2023-04-18T01:30:51.031Z,557.00
2023-04-18T01:31:51.000Z,554.00
2023-04-18T01:32:51.046Z,557.00
2023-04-18T01:33:50.990Z,557.00
2023-04-18T01:34:51.003Z,554.00
2023-04-18T01:35:51.006Z,554.00
2023-04-18T01:36:51.002Z,556.00
2023-04-18T01:37:50.999Z,556.00
2023-04-18T01:38:50.990Z,555.00
2023-04-18T01:39:50.975Z,554.00
2023-04-18T01:40:50.990Z,554.00
2023-04-18T01:41:50.998Z,555.00
2023-04-18T01:42:50.998Z,552.00
2023-04-18T01:43:50.970Z,552.00
2023-04-18T01:44:50.986Z,553.00
2023-04-18T01:45:50.962Z,552.00
2023-04-18T01:46:51.024Z,552.00
2023-04-18T01:47:51.038Z,553.00
2023-04-18T01:48:50.957Z,553.00
2023-04-18T01:49:50.951Z,559.00
2023-04-18T01:50:50.955Z,561.00
2023-04-18T01:51:50.965Z,564.00
2023-04-18T01:52:50.958Z,564.00
2023-04-18T01:53:50.930Z,564.00
2023-04-18T01:54:50.928Z,566.00
2023-04-18T01:55:50.961Z,564.00
2023-04-18T01:56:50.931Z,560.00
2023-04-18T01:57:50.939Z,563.00
2023-04-18T01:58:50.924Z,564.00
2023-04-18T01:59:50.917Z,563.00
2023-04-18T02:00:50.925Z,563.00
2023-04-18T02:01:50.933Z,565.00
2023-04-18T02:02:51.084Z,564.00
2023-04-18T02:03:51.147Z,560.00
2023-04-18T02:04:50.893Z,562.00
2023-04-18T02:05:50.883Z,561.00
2023-04-18T02:06:50.891Z,561.00
2023-04-18T02:07:50.878Z,560.00
2023-04-18T02:08:50.873Z,560.00
2023-04-18T02:09:50.860Z,560.00
2023-04-18T02:10:50.856Z,560.00
2023-04-18T02:11:50.862Z,559.00
2023-04-18T02:12:50.860Z,560.00
2023-04-18T02:13:50.852Z,560.00
2023-04-18T02:14:50.845Z,556.00
2023-04-18T02:15:50.836Z,556.00
2023-04-18T02:16:50.980Z,553.00
2023-04-18T02:17:50.878Z,556.00
2023-04-18T02:18:50.926Z,554.00
2023-04-18T02:19:50.817Z,556.00
2023-04-18T02:20:50.805Z,556.00
2023-04-18T02:21:50.806Z,557.00
2023-04-18T02:22:50.795Z,558.00
2023-04-18T02:23:50.789Z,559.00
2023-04-18T02:24:50.791Z,559.00
2023-04-18T02:25:50.836Z,561.00
2023-04-18T02:26:50.784Z,563.00
2023-04-18T02:27:50.770Z,561.00
2023-04-18T02:28:50.760Z,559.00
2023-04-18T02:29:50.763Z,557.00
2023-04-18T02:30:50.747Z,556.00
2023-04-18T02:31:50.844Z,555.00
2023-04-18T02:32:50.825Z,554.00
2023-04-18T02:33:50.743Z,555.00
2023-04-18T02:34:50.769Z,558.00
2023-04-18T02:35:50.748Z,558.00
2023-04-18T02:36:50.742Z,559.00
2023-04-18T02:37:50.732Z,559.00
2023-04-18T02:38:50.730Z,561.00
2023-04-18T02:39:50.719Z,559.00
2023-04-18T02:40:50.704Z,558.00
2023-04-18T02:41:50.713Z,560.00
2023-04-18T02:42:50.701Z,561.00
2023-04-18T02:43:50.692Z,559.00
2023-04-18T02:44:50.692Z,558.00
2023-04-18T02:45:50.719Z,558.00
2023-04-18T02:46:50.679Z,557.00
2023-04-18T02:47:55.395Z,557.00
2023-04-18T02:48:50.653Z,557.00
2023-04-18T02:49:50.660Z,559.00
2023-04-18T02:50:50.686Z,558.00
2023-04-18T02:51:50.631Z,559.00
2023-04-18T02:52:50.609Z,558.00
2023-04-18T02:53:50.593Z,557.00
2023-04-18T02:54:50.586Z,559.00
2023-04-18T02:55:50.583Z,556.00
2023-04-18T02:56:50.580Z,557.00
2023-04-18T02:57:50.574Z,559.00
2023-04-18T02:58:50.570Z,559.00
2023-04-18T02:59:50.561Z,559.00
2023-04-18T03:00:50.555Z,560.00
2023-04-18T03:01:50.559Z,565.00
2023-04-18T03:02:50.676Z,563.00
2023-04-18T03:03:50.544Z,561.00
2023-04-18T03:04:50.563Z,563.00
2023-04-18T03:05:50.529Z,564.00
2023-04-18T03:06:50.561Z,565.00
2023-04-18T03:07:50.523Z,565.00
2023-04-18T03:08:50.512Z,564.00
2023-04-18T03:09:50.508Z,562.00
2023-04-18T03:10:50.503Z,558.00
2023-04-18T03:11:50.490Z,556.00
2023-04-18T03:12:50.478Z,556.00
2023-04-18T03:13:50.470Z,554.00
2023-04-18T03:14:50.444Z,553.00
2023-04-18T03:15:50.466Z,552.00
2023-04-18T03:16:51.772Z,554.00
2023-04-18T03:17:50.473Z,553.00
2023-04-18T03:18:50.396Z,554.00
2023-04-18T03:19:50.395Z,553.00
2023-04-18T03:20:50.370Z,550.00
2023-04-18T03:21:50.368Z,551.00
2023-04-18T03:22:50.370Z,553.00
2023-04-18T03:23:50.346Z,556.00
2023-04-18T03:24:50.340Z,557.00
2023-04-18T03:25:50.314Z,559.00
2023-04-18T03:26:50.316Z,559.00
2023-04-18T03:27:50.290Z,560.00
2023-04-18T03:28:50.284Z,559.00
2023-04-18T03:29:50.274Z,558.00
2023-04-18T03:30:50.424Z,558.00
2023-04-18T03:31:50.246Z,558.00
2023-04-18T03:32:50.288Z,558.00
2023-04-18T03:33:50.237Z,559.00
2023-04-18T03:34:50.225Z,558.00
2023-04-18T03:35:50.216Z,558.00
2023-04-18T03:36:50.208Z,557.00
2023-04-18T03:37:50.196Z,557.00
2023-04-18T03:38:50.216Z,557.00
2023-04-18T03:39:50.194Z,555.00
2023-04-18T03:40:50.179Z,557.00
2023-04-18T03:41:50.157Z,555.00
2023-04-18T03:42:50.140Z,558.00
2023-04-18T03:43:50.136Z,557.00
2023-04-18T03:44:50.148Z,557.00
2023-04-18T03:45:50.142Z,555.00
2023-04-18T03:46:50.104Z,554.00
2023-04-18T03:47:50.140Z,555.00
2023-04-18T03:48:50.077Z,555.00
2023-04-18T03:49:50.060Z,553.00
2023-04-18T03:50:50.060Z,556.00
2023-04-18T03:51:50.049Z,557.00
2023-04-18T03:52:50.043Z,560.00
2023-04-18T03:53:50.033Z,559.00
2023-04-18T03:54:50.056Z,561.00
2023-04-18T03:55:50.021Z,559.00
2023-04-18T03:56:50.014Z,559.00
2023-04-18T03:57:50.014Z,559.00
2023-04-18T03:58:50.010Z,559.00
2023-04-18T03:59:50.027Z,557.00
2023-04-18T04:00:50.000Z,554.00
2023-04-18T04:01:50.035Z,556.00
2023-04-18T04:02:50.186Z,555.00
2023-04-18T04:03:50.157Z,557.00
2023-04-18T04:04:50.031Z,556.00
2023-04-18T04:05:50.108Z,558.00
2023-04-18T04:06:49.938Z,556.00
2023-04-18T04:07:49.924Z,558.00
2023-04-18T04:08:49.925Z,558.00
2023-04-18T04:09:49.927Z,554.00
2023-04-18T04:10:49.980Z,550.00
2023-04-18T04:11:49.886Z,550.00
2023-04-18T04:12:49.916Z,551.00
2023-04-18T04:13:49.875Z,555.00
2023-04-18T04:14:49.869Z,557.00
2023-04-18T04:15:49.857Z,557.00
2023-04-18T04:16:50.043Z,559.00
2023-04-18T04:17:49.896Z,560.00
2023-04-18T04:18:49.841Z,563.00
2023-04-18T04:19:49.837Z,562.00
2023-04-18T04:20:49.867Z,561.00
2023-04-18T04:21:49.809Z,559.00
2023-04-18T04:22:49.802Z,558.00
2023-04-18T04:23:49.791Z,556.00
2023-04-18T04:24:49.782Z,556.00
2023-04-18T04:25:49.772Z,557.00
2023-04-18T04:26:49.795Z,556.00
2023-04-18T04:27:49.757Z,558.00
2023-04-18T04:28:49.748Z,558.00
2023-04-18T04:29:49.778Z,558.00
2023-04-18T04:30:49.725Z,554.00
2023-04-18T04:31:49.736Z,554.00
2023-04-18T04:32:49.806Z,557.00
2023-04-18T04:33:49.701Z,555.00
2023-04-18T04:34:49.689Z,556.00
2023-04-18T04:35:49.761Z,552.00
2023-04-18T04:36:49.666Z,553.00
2023-04-18T04:37:49.668Z,554.00
2023-04-18T04:38:49.660Z,554.00
2023-04-18T04:39:49.649Z,556.00
2023-04-18T04:40:49.646Z,555.00
2023-04-18T04:41:49.660Z,552.00
2023-04-18T04:42:49.719Z,552.00
2023-04-18T04:43:49.626Z,551.00
2023-04-18T04:44:49.768Z,554.00
2023-04-18T04:45:49.659Z,555.00
2023-04-18T04:46:49.618Z,554.00
2023-04-18T04:47:49.668Z,551.00
2023-04-18T04:48:49.614Z,551.00
2023-04-18T04:49:49.601Z,551.00
2023-04-18T04:50:49.595Z,552.00
2023-04-18T04:51:49.594Z,550.00
2023-04-18T04:52:49.620Z,549.00
2023-04-18T04:53:49.596Z,552.00
2023-04-18T04:54:49.595Z,553.00
2023-04-18T04:55:49.577Z,556.00
2023-04-18T04:56:49.586Z,558.00
2023-04-18T04:57:49.581Z,557.00
2023-04-18T04:58:49.607Z,556.00
2023-04-18T04:59:49.586Z,557.00
2023-04-18T05:00:49.671Z,557.00
2023-04-18T05:01:49.678Z,557.00
2023-04-18T05:02:49.941Z,557.00
2023-04-18T05:03:49.861Z,558.00
2023-04-18T05:04:49.676Z,556.00
2023-04-18T05:05:49.694Z,553.00
2023-04-18T05:06:49.701Z,553.00
2023-04-18T05:07:49.740Z,555.00
2023-04-18T05:08:49.747Z,552.00
2023-04-18T05:09:49.760Z,549.00
2023-04-18T05:10:49.783Z,545.00
2023-04-18T05:11:49.808Z,546.00
2023-04-18T05:12:49.824Z,545.00
2023-04-18T05:13:49.836Z,543.00
2023-04-18T05:14:49.888Z,543.00
2023-04-18T05:15:49.870Z,543.00
2023-04-18T05:16:49.902Z,542.00
2023-04-18T05:17:50.086Z,544.00
2023-04-18T05:18:49.911Z,546.00
2023-04-18T05:19:49.994Z,547.00
2023-04-18T05:20:49.908Z,545.00
2023-04-18T05:21:49.895Z,545.00
2023-04-18T05:22:49.899Z,546.00
2023-04-18T05:23:49.886Z,550.00
2023-04-18T05:24:49.988Z,555.00
2023-04-18T05:25:49.859Z,562.00
2023-04-18T05:26:49.877Z,561.00
2023-04-18T05:27:49.857Z,567.00
2023-04-18T05:28:49.854Z,566.00
2023-04-18T05:29:49.855Z,569.00
2023-04-18T05:30:50.036Z,568.00
2023-04-18T05:31:49.847Z,567.00
2023-04-18T05:32:49.876Z,568.00
2023-04-18T05:33:49.831Z,567.00
2023-04-18T05:34:49.812Z,570.00
2023-04-18T05:35:49.799Z,569.00
2023-04-18T05:36:49.801Z,572.00
2023-04-18T05:37:49.992Z,573.00
2023-04-18T05:38:49.825Z,577.00
2023-04-18T05:39:50.010Z,581.00
2023-04-18T05:40:49.799Z,585.00
2023-04-18T05:41:49.816Z,585.00
2023-04-18T05:42:49.805Z,590.00
2023-04-18T05:44:01.871Z,597.00
2023-04-18T05:44:49.803Z,604.00
2023-04-18T05:45:49.789Z,614.00
2023-04-18T05:46:49.811Z,622.00
2023-04-18T05:47:49.767Z,625.00
2023-04-18T05:48:50.001Z,626.00
2023-04-18T05:49:50.090Z,627.00
2023-04-18T05:50:49.738Z,630.00
2023-04-18T05:51:49.759Z,636.00
2023-04-18T05:52:49.691Z,641.00
2023-04-18T05:53:50.019Z,644.00
2023-04-18T05:54:49.699Z,647.00
2023-04-18T05:55:49.937Z,650.00
2023-04-18T05:56:49.730Z,657.00
2023-04-18T05:57:49.642Z,676.00
2023-04-18T05:58:50.003Z,684.00
2023-04-18T05:59:50.041Z,692.00
2023-04-18T06:00:49.624Z,685.00
2023-04-18T06:01:49.606Z,667.00
2023-04-18T06:02:49.861Z,656.00
2023-04-18T06:03:50.206Z,655.00
2023-04-18T06:04:49.960Z,666.00
2023-04-18T06:05:49.681Z,673.00
2023-04-18T06:06:49.571Z,676.00
2023-04-18T06:07:50.011Z,679.00
2023-04-18T06:08:49.593Z,676.00
2023-04-18T06:09:50.018Z,681.00
2023-04-18T06:10:49.576Z,690.00
2023-04-18T06:11:49.582Z,696.00
2023-04-18T06:12:49.960Z,705.00
2023-04-18T06:13:50.012Z,709.00
2023-04-18T06:14:50.725Z,713.00
2023-04-18T06:15:50.118Z,713.00
2023-04-18T06:16:49.996Z,713.00
2023-04-18T06:17:50.228Z,713.00
2023-04-18T06:18:49.987Z,713.00
2023-04-18T06:19:50.824Z,714.00
2023-04-18T06:20:50.079Z,714.00
2023-04-18T06:21:49.912Z,715.00
2023-04-18T06:22:50.134Z,718.00
2023-04-18T06:23:50.661Z,716.00
2023-04-18T06:24:50.011Z,718.00
2023-04-18T06:25:50.362Z,716.00
2023-04-18T06:26:49.708Z,716.00
2023-04-18T06:27:49.854Z,712.00
2023-04-18T06:28:50.104Z,710.00
2023-04-18T06:29:50.673Z,709.00
2023-04-18T06:30:49.917Z,706.00
2023-04-18T06:31:49.789Z,707.00
2023-04-18T06:32:49.957Z,706.00
2023-04-18T06:33:49.882Z,705.00
2023-04-18T06:34:50.073Z,701.00
2023-04-18T06:35:49.566Z,700.00
2023-04-18T06:36:49.581Z,703.00
2023-04-18T06:37:49.567Z,701.00
2023-04-18T06:38:50.014Z,702.00
2023-04-18T06:39:49.577Z,701.00
2023-04-18T06:40:49.596Z,704.00
2023-04-18T06:41:49.627Z,707.00
2023-04-18T06:42:49.631Z,709.00
2023-04-18T06:44:14.539Z,705.00
2023-04-18T06:44:49.626Z,707.00
2023-04-18T06:45:49.659Z,710.00
2023-04-18T06:46:49.630Z,712.00
2023-04-18T06:47:49.702Z,711.00
2023-04-18T06:48:51.433Z,709.00
2023-04-18T06:49:49.715Z,708.00
2023-04-18T06:50:49.662Z,708.00
2023-04-18T06:51:49.616Z,705.00
2023-04-18T06:52:50.034Z,703.00
2023-04-18T06:53:49.612Z,702.00
2023-04-18T06:54:50.023Z,704.00
2023-04-18T06:55:49.626Z,705.00
2023-04-18T06:56:49.645Z,707.00
2023-04-18T06:57:49.601Z,707.00
2023-04-18T06:58:50.024Z,705.00
2023-04-18T06:59:49.588Z,706.00
2023-04-18T07:00:50.067Z,708.00
2023-04-18T07:01:49.584Z,707.00
2023-04-18T07:02:49.735Z,706.00
2023-04-18T07:03:50.195Z,709.00
2023-04-18T07:04:49.577Z,705.00
2023-04-18T07:05:49.568Z,702.00
2023-04-18T07:06:49.591Z,700.00
2023-04-18T07:07:49.569Z,698.00
2023-04-18T07:08:50.020Z,695.00
2023-04-18T07:09:49.553Z,698.00
2023-04-18T07:10:49.569Z,697.00
2023-04-18T07:11:49.531Z,698.00
2023-04-18T07:12:49.528Z,695.00
2023-04-18T07:13:50.027Z,696.00
2023-04-18T07:14:49.627Z,698.00
2023-04-18T07:15:49.534Z,697.00
2023-04-18T07:16:49.559Z,697.00
2023-04-18T07:17:49.572Z,696.00
2023-04-18T07:18:49.588Z,696.00
2023-04-18T07:19:49.656Z,697.00
2023-04-18T07:20:49.689Z,697.00
2023-04-18T07:21:49.770Z,700.00
2023-04-18T07:22:50.028Z,699.00
2023-04-18T07:23:50.033Z,696.00
2023-04-18T07:24:49.869Z,695.00
2023-04-18T07:25:49.935Z,694.00
2023-04-18T07:26:49.991Z,693.00
2023-04-18T07:27:50.532Z,694.00
2023-04-18T07:28:50.530Z,695.00
2023-04-18T07:29:50.105Z,693.00
2023-04-18T07:30:50.247Z,691.00
2023-04-18T07:31:50.196Z,691.00
2023-04-18T07:32:50.403Z,690.00
2023-04-18T07:33:50.558Z,689.00
2023-04-18T07:34:50.362Z,688.00
2023-04-18T07:35:50.391Z,687.00
2023-04-18T07:36:50.467Z,686.00
2023-04-18T07:37:50.500Z,686.00
2023-04-18T07:38:51.077Z,688.00
2023-04-18T07:39:50.625Z,687.00
2023-04-18T07:40:50.718Z,726.00
2023-04-18T07:41:50.747Z,767.00
2023-04-18T07:42:50.838Z,783.00
2023-04-18T07:43:51.081Z,808.00
2023-04-18T07:44:50.940Z,823.00
2023-04-18T07:45:51.054Z,836.00
2023-04-18T07:46:51.080Z,872.00
2023-04-18T07:48:50.543Z,896.00
2023-04-18T07:49:51.255Z,907.00
2023-04-18T07:50:51.545Z,919.00
2023-04-18T07:51:51.374Z,927.00
2023-04-18T07:52:51.420Z,938.00
2023-04-18T07:53:51.461Z,956.00
2023-04-18T07:54:51.565Z,975.00
2023-04-18T07:55:52.049Z,995.00
2023-04-18T07:56:51.609Z,1019.00
2023-04-18T07:57:51.742Z,1042.00
2023-04-18T07:58:51.668Z,1056.00
2023-04-18T07:59:51.713Z,1071.00
2023-04-18T08:00:52.044Z,1087.00
2023-04-18T08:01:51.767Z,1107.00
2023-04-18T08:02:51.971Z,1124.00
2023-04-18T08:03:51.966Z,1140.00
2023-04-18T08:04:52.173Z,1164.00
2023-04-18T08:05:52.061Z,1181.00
2023-04-18T08:06:51.899Z,1196.00
2023-04-18T08:07:51.920Z,1213.00
2023-04-18T08:08:52.057Z,1229.00
2023-04-18T08:09:51.978Z,1248.00
2023-04-18T08:10:52.045Z,1267.00
2023-04-18T08:11:52.007Z,1294.00
2023-04-18T08:12:52.020Z,1308.00
2023-04-18T08:13:52.044Z,1323.00
2023-04-18T08:14:52.358Z,1338.00
2023-04-18T08:15:52.602Z,1354.00
2023-04-18T08:16:52.102Z,1374.00
2023-04-18T08:17:52.125Z,1386.00
2023-04-18T08:18:52.113Z,1407.00
2023-04-18T08:19:52.552Z,1449.00
2023-04-18T08:20:52.124Z,1459.00
2023-04-18T08:21:52.141Z,1466.00
2023-04-18T08:23:06.008Z,1486.00
2023-04-18T08:23:52.142Z,1511.00
2023-04-18T08:25:52.141Z,1540.00
2023-04-18T08:26:52.770Z,1554.00
2023-04-18T08:27:52.660Z,1574.00
2023-04-18T08:28:52.111Z,1596.00
2023-04-18T08:29:52.561Z,1608.00
2023-04-18T08:30:52.131Z,1623.00
2023-04-18T08:31:52.111Z,1634.00
2023-04-18T08:32:52.222Z,1651.00
2023-04-18T08:33:52.063Z,1677.00
2023-04-18T08:34:52.057Z,1691.00
2023-04-18T08:35:52.059Z,1708.00
2023-04-18T08:36:52.030Z,1722.00
2023-04-18T08:37:52.033Z,1740.00
2023-04-18T08:38:52.014Z,1755.00
2023-04-18T08:39:52.060Z,1773.00
2023-04-18T08:40:51.998Z,1784.00
2023-04-18T08:41:51.987Z,1800.00
2023-04-18T08:42:52.167Z,1819.00
2023-04-18T08:43:52.061Z,1837.00
2023-04-18T08:44:52.071Z,1855.00
2023-04-18T08:45:53.043Z,1864.00
2023-04-18T08:46:51.957Z,1881.00
2023-04-18T08:47:51.957Z,1904.00
2023-04-18T08:48:51.909Z,1922.00
2023-04-18T08:49:52.155Z,1938.00
2023-04-18T08:50:51.889Z,1953.00
2023-04-18T08:51:51.869Z,1973.00
2023-04-18T08:52:51.891Z,1993.00
2023-04-18T08:53:52.077Z,2012.00
2023-04-18T08:54:51.843Z,2034.00
2023-04-18T08:55:51.822Z,2047.00
2023-04-18T08:56:51.833Z,2074.00
2023-04-18T08:57:51.791Z,2087.00
2023-04-18T08:58:52.118Z,2099.00
2023-04-18T08:59:51.759Z,2109.00
2023-04-18T09:00:51.811Z,2116.00
2023-04-18T09:01:51.728Z,2132.00
2023-04-18T09:02:52.157Z,2154.00
2023-04-18T09:03:51.737Z,2176.00
2023-04-18T09:04:51.704Z,2191.00
2023-04-18T09:05:51.652Z,2210.00
2023-04-18T09:06:51.646Z,2230.00
2023-04-18T09:07:52.065Z,2239.00
2023-04-18T09:08:51.762Z,2250.00
2023-04-18T09:09:51.603Z,2260.00
2023-04-18T09:10:51.619Z,2273.00
2023-04-18T09:11:51.631Z,2289.00
2023-04-18T09:12:52.245Z,2309.00
2023-04-18T09:13:51.730Z,2330.00
2023-04-18T09:14:51.783Z,2349.00
2023-04-18T09:15:51.788Z,2357.00
2023-04-18T09:16:51.876Z,2369.00
2023-04-18T09:17:52.092Z,2384.00
2023-04-18T09:18:51.843Z,2401.00
2023-04-18T09:19:51.829Z,1963.00
2023-04-18T09:20:51.836Z,1459.00
2023-04-18T09:21:52.086Z,1306.00
2023-04-18T09:22:51.955Z,1238.00
2023-04-18T09:23:51.957Z,1341.00
2023-04-18T09:24:51.978Z,1351.00
2023-04-18T09:25:52.074Z,1390.00
2023-04-18T09:26:52.077Z,1391.00
2023-04-18T09:27:52.116Z,1402.00
2023-04-18T09:28:53.861Z,1421.00
2023-04-18T09:29:52.067Z,1471.00
2023-04-18T09:30:52.103Z,1675.00
2023-04-18T09:31:52.078Z,1717.00
2023-04-18T09:32:52.106Z,1727.00
2023-04-18T09:33:52.009Z,1753.00
2023-04-18T09:34:51.997Z,1728.00
2023-04-18T09:35:52.004Z,1711.00
2023-04-18T09:36:52.130Z,1619.00
2023-04-18T09:37:51.969Z,1618.00
2023-04-18T09:38:53.701Z,1618.00
2023-04-18T09:39:52.927Z,1620.00
2023-04-18T09:40:52.083Z,1619.00
2023-04-18T09:41:51.922Z,1624.00
2023-04-18T09:42:51.900Z,1649.00
2023-04-18T09:43:51.893Z,1425.00
2023-04-18T09:44:51.883Z,1241.00
2023-04-18T09:45:52.116Z,1176.00
2023-04-18T09:46:52.075Z,1030.00
2023-04-18T09:47:52.120Z,1005.00
2023-04-18T09:48:51.836Z,965.00
2023-04-18T09:49:51.838Z,890.00
2023-04-18T09:50:51.846Z,852.00
2023-04-18T09:51:52.591Z,898.00
2023-04-18T09:52:51.796Z,915.00
